Time,TemperatureF,DewpointF,PressureIn,WindDirection,WindDirectionDegrees,WindSpeedMPH,WindSpeedGustMPH,Humidity,HourlyPrecipIn,Conditions,Clouds,dailyrainin,SoftwareType,DateUTC
2013-04-07 00:07:00,60.6,46.2,29.83,SSW,202,0.0,-999.0,59,-99.99,,,0.00,Acu-Link.com,2013-04-07 04:07:00,
2013-04-07 00:22:00,60.1,46.2,29.83,ESE,112,3.2,-999.0,60,-99.99,,,0.00,Acu-Link.com,2013-04-07 04:22:00,
2013-04-07 00:37:00,58.5,46.8,29.83,WNW,292,0.0,-999.0,65,-99.99,,,0.00,Acu-Link.com,2013-04-07 04:37:00,
2013-04-07 00:53:00,56.3,46.3,29.84,West,270,0.0,-999.0,69,-99.99,,,0.00,Acu-Link.com,2013-04-07 04:53:00,
2013-04-07 01:08:00,54.5,45.7,29.84,WNW,292,0.0,-999.0,72,-99.99,,,0.00,Acu-Link.com,2013-04-07 05:08:00,
2013-04-07 01:23:00,53.2,44.8,29.84,SW,225,0.0,-999.0,73,-99.99,,,0.00,Acu-Link.com,2013-04-07 05:23:00,
2013-04-07 01:38:00,52.0,45.0,29.84,NNW,337,0.0,-999.0,77,-99.99,,,0.00,Acu-Link.com,2013-04-07 05:38:00,
2013-04-07 01:53:00,50.9,44.6,29.84,NNW,337,0.0,-999.0,79,-99.99,,,0.00,Acu-Link.com,2013-04-07 05:53:00,
2013-04-07 02:08:00,50.2,44.9,29.84,SW,225,0.0,-999.0,82,-99.99,,,0.00,Acu-Link.com,2013-04-07 06:08:00,
2013-04-07 02:23:00,49.6,45.0,29.84,SSW,202,0.0,-999.0,84,-99.99,,,0.00,Acu-Link.com,2013-04-07 06:23:00,
2013-04-07 02:39:00,49.8,45.8,29.84,South,180,0.0,-999.0,86,-99.99,,,0.00,Acu-Link.com,2013-04-07 06:39:00,
2013-04-07 02:54:00,49.5,45.8,29.84,SSE,157,0.0,-999.0,87,-99.99,,,0.00,Acu-Link.com,2013-04-07 06:54:00,
2013-04-07 03:09:00,48.4,45.0,29.84,West,270,0.0,-999.0,88,-99.99,,,0.00,Acu-Link.com,2013-04-07 07:09:00,
2013-04-07 03:39:00,48.0,45.8,29.84,SW,225,0.0,-999.0,92,-99.99,,,0.00,Acu-Link.com,2013-04-07 07:39:00,
2013-04-07 03:54:00,47.7,45.5,29.84,South,180,0.0,-999.0,92,-99.99,,,0.00,Acu-Link.com,2013-04-07 07:54:00,
2013-04-07 04:11:00,47.3,45.1,29.83,WNW,292,0.0,-999.0,92,-99.99,,,0.00,Acu-Link.com,2013-04-07 08:11:00,
2013-04-07 04:41:00,46.4,45.3,29.83,WSW,247,0.0,-999.0,96,-99.99,,,0.00,Acu-Link.com,2013-04-07 08:41:00,
2013-04-07 04:56:00,46.0,44.9,29.84,South,180,0.0,-999.0,96,-99.99,,,0.00,Acu-Link.com,2013-04-07 08:56:00,
2013-04-07 05:26:00,45.1,44.6,29.85,East,90,0.0,-999.0,98,-99.99,,,0.00,Acu-Link.com,2013-04-07 09:26:00,
2013-04-07 05:42:00,44.6,44.1,29.85,NNW,337,0.0,-999.0,98,-99.99,,,0.00,Acu-Link.com,2013-04-07 09:42:00,
2013-04-07 06:13:00,45.1,44.6,29.85,ESE,112,0.0,-999.0,98,-99.99,,,0.00,Acu-Link.com,2013-04-07 10:13:00,
2013-04-07 06:28:00,44.6,44.1,29.86,West,270,0.0,-999.0,98,-99.99,,,0.00,Acu-Link.com,2013-04-07 10:28:00,
2013-04-07 06:43:00,45.0,44.5,29.86,SSE,157,0.0,-999.0,98,-99.99,,,0.00,Acu-Link.com,2013-04-07 10:43:00,
2013-04-07 06:58:00,45.1,44.6,29.87,South,180,0.0,-999.0,98,-99.99,,,0.00,Acu-Link.com,2013-04-07 10:58:00,
2013-04-07 07:13:00,45.0,44.5,29.88,SW,225,0.0,-999.0,98,-99.99,,,0.00,Acu-Link.com,2013-04-07 11:13:00,
2013-04-07 07:28:00,45.1,44.6,29.88,SSW,202,0.0,-999.0,98,-99.99,,,0.00,Acu-Link.com,2013-04-07 11:28:00,
2013-04-07 07:43:00,45.7,45.2,29.89,WSW,247,0.0,-999.0,98,-99.99,,,0.00,Acu-Link.com,2013-04-07 11:43:00,
2013-04-07 07:58:00,51.8,48.1,29.89,SW,225,1.1,-999.0,87,-99.99,,,0.00,Acu-Link.com,2013-04-07 11:58:00,
2013-04-07 08:14:00,53.4,48.4,29.89,SW,225,2.7,-999.0,83,-99.99,,,0.00,Acu-Link.com,2013-04-07 12:14:00,
2013-04-07 08:44:00,54.7,49.0,29.90,ESE,112,1.7,-999.0,81,-99.99,,,0.00,Acu-Link.com,2013-04-07 12:44:00,
2013-04-07 08:59:00,55.4,49.3,29.90,SSW,202,2.7,-999.0,80,-99.99,,,0.00,Acu-Link.com,2013-04-07 12:59:00,
2013-04-07 09:14:00,56.3,49.9,29.91,SSW,202,3.2,-999.0,79,-99.99,,,0.00,Acu-Link.com,2013-04-07 13:14:00,
2013-04-07 09:29:00,58.1,50.6,29.91,SW,225,6.8,-999.0,76,-99.99,,,0.00,Acu-Link.com,2013-04-07 13:29:00,
2013-04-07 09:44:00,59.7,51.4,29.91,ESE,112,4.2,-999.0,74,-99.99,,,0.00,Acu-Link.com,2013-04-07 13:44:00,
2013-04-07 10:00:00,61.0,51.9,29.91,SSE,157,3.2,-999.0,72,-99.99,,,0.00,Acu-Link.com,2013-04-07 14:00:00,
2013-04-07 10:15:00,61.3,51.8,29.91,South,180,5.8,-999.0,71,-99.99,,,0.00,Acu-Link.com,2013-04-07 14:15:00,
2013-04-07 10:30:00,62.8,52.9,29.90,South,180,4.2,-999.0,70,-99.99,,,0.00,Acu-Link.com,2013-04-07 14:30:00,
2013-04-07 10:45:00,64.2,53.8,29.90,WSW,247,5.8,-999.0,69,-99.99,,,0.00,Acu-Link.com,2013-04-07 14:45:00,
2013-04-07 11:00:00,64.4,53.6,29.91,SSW,202,11.4,-999.0,68,-99.99,,,0.00,Acu-Link.com,2013-04-07 15:00:00,
2013-04-07 11:15:00,65.7,54.8,29.90,SSW,202,6.8,-999.0,68,-99.99,,,0.00,Acu-Link.com,2013-04-07 15:15:00,
2013-04-07 11:31:00,66.4,55.1,29.90,SSW,202,5.3,-999.0,67,-99.99,,,0.00,Acu-Link.com,2013-04-07 15:31:00,
2013-04-07 11:46:00,66.9,54.7,29.90,SSW,202,6.8,-999.0,65,-99.99,,,0.00,Acu-Link.com,2013-04-07 15:46:00,
2013-04-07 12:01:00,68.7,54.2,29.90,South,180,9.4,-999.0,60,-99.99,,,0.00,Acu-Link.com,2013-04-07 16:01:00,
2013-04-07 12:31:00,69.6,53.7,29.88,SSW,202,9.4,-999.0,57,-99.99,,,0.00,Acu-Link.com,2013-04-07 16:31:00,
2013-04-07 12:46:00,71.1,54.6,29.86,SSW,202,9.4,-999.0,56,-99.99,,,0.00,Acu-Link.com,2013-04-07 16:46:00,
2013-04-07 13:01:00,70.3,54.8,29.86,SSW,202,8.3,-999.0,58,-99.99,,,0.00,Acu-Link.com,2013-04-07 17:01:00,
2013-04-07 13:47:00,72.3,54.7,29.83,SSW,202,10.4,-999.0,54,-99.99,,,0.00,Acu-Link.com,2013-04-07 17:47:00,
2013-04-07 14:02:00,72.9,54.8,29.83,SW,225,8.9,-999.0,53,-99.99,,,0.00,Acu-Link.com,2013-04-07 18:02:00,
2013-04-07 14:32:00,72.3,53.1,29.82,South,180,11.4,-999.0,51,-99.99,,,0.00,Acu-Link.com,2013-04-07 18:32:00,
2013-04-07 14:47:00,75.4,54.9,29.80,South,180,7.8,-999.0,49,-99.99,,,0.00,Acu-Link.com,2013-04-07 18:47:00,
2013-04-07 15:02:00,74.7,52.5,29.80,NNW,337,6.3,-999.0,46,-99.99,,,0.00,Acu-Link.com,2013-04-07 19:02:00,
2013-04-07 15:17:00,74.8,52.6,29.79,SSW,202,12.5,-999.0,46,-99.99,,,0.00,Acu-Link.com,2013-04-07 19:17:00,
2013-04-07 15:33:00,75.7,51.0,29.79,SSW,202,8.3,-999.0,42,-99.99,,,0.00,Acu-Link.com,2013-04-07 19:33:00,
2013-04-07 15:48:00,75.7,52.2,29.78,South,180,7.8,-999.0,44,-99.99,,,0.00,Acu-Link.com,2013-04-07 19:48:00,
2013-04-07 16:03:00,75.6,53.3,29.78,SSW,202,4.2,-999.0,46,-99.99,,,0.00,Acu-Link.com,2013-04-07 20:03:00,
2013-04-07 16:18:00,77.5,53.8,29.79,NNE,22,4.2,-999.0,44,-99.99,,,0.00,Acu-Link.com,2013-04-07 20:18:00,
2013-04-07 16:49:00,76.6,54.3,29.77,SW,225,4.7,-999.0,46,-99.99,,,0.00,Acu-Link.com,2013-04-07 20:49:00,
2013-04-07 17:19:00,75.4,54.9,29.77,ESE,112,5.3,-999.0,49,-99.99,,,0.00,Acu-Link.com,2013-04-07 21:19:00,
2013-04-07 17:34:00,76.6,55.4,29.76,SW,225,2.2,-999.0,48,-99.99,,,0.00,Acu-Link.com,2013-04-07 21:34:00,
2013-04-07 18:04:00,76.5,54.8,29.76,SSW,202,5.3,-999.0,47,-99.99,,,0.00,Acu-Link.com,2013-04-07 22:04:00,
2013-04-07 18:19:00,75.7,55.2,29.76,West,270,4.7,-999.0,49,-99.99,,,0.00,Acu-Link.com,2013-04-07 22:19:00,
2013-04-07 18:34:00,74.8,54.9,29.76,West,270,7.3,-999.0,50,-99.99,,,0.00,Acu-Link.com,2013-04-07 22:34:00,
2013-04-07 18:49:00,73.8,54.5,29.77,SSW,202,5.3,-999.0,51,-99.99,,,0.00,Acu-Link.com,2013-04-07 22:49:00,
2013-04-07 19:04:00,73.4,55.2,29.75,SW,225,4.2,-999.0,53,-99.99,,,0.00,Acu-Link.com,2013-04-07 23:04:00,
2013-04-07 19:20:00,73.0,54.8,29.75,WSW,247,2.2,-999.0,53,-99.99,,,0.00,Acu-Link.com,2013-04-07 23:20:00,
2013-04-07 19:50:00,71.2,55.2,29.75,SSE,157,1.7,-999.0,57,-99.99,,,0.00,Acu-Link.com,2013-04-07 23:50:00,
2013-04-07 20:05:00,69.4,56.7,29.75,South,180,1.7,-999.0,64,-99.99,,,0.00,Acu-Link.com,2013-04-08 00:05:00,
2013-04-07 20:20:00,68.7,56.0,29.75,NW,315,0.0,-999.0,64,-99.99,,,0.00,Acu-Link.com,2013-04-08 00:20:00,
2013-04-07 20:35:00,66.9,56.4,29.75,South,180,1.7,-999.0,69,-99.99,,,0.00,Acu-Link.com,2013-04-08 00:35:00,
2013-04-07 20:50:00,66.2,56.1,29.75,ESE,112,0.0,-999.0,70,-99.99,,,0.00,Acu-Link.com,2013-04-08 00:50:00,
2013-04-07 21:05:00,64.2,57.5,29.76,SSW,202,0.0,-999.0,79,-99.99,,,0.00,Acu-Link.com,2013-04-08 01:05:00,
2013-04-07 21:20:00,63.5,56.5,29.75,NW,315,0.0,-999.0,78,-99.99,,,0.00,Acu-Link.com,2013-04-08 01:20:00,
2013-04-07 21:36:00,62.6,56.0,29.75,NW,315,0.0,-999.0,79,-99.99,,,0.00,Acu-Link.com,2013-04-08 01:36:00,
2013-04-07 21:51:00,61.7,55.8,29.76,SSW,202,0.0,-999.0,81,-99.99,,,0.00,Acu-Link.com,2013-04-08 01:51:00,
2013-04-07 22:21:00,59.7,54.2,29.76,West,270,0.0,-999.0,82,-99.99,,,0.00,Acu-Link.com,2013-04-08 02:21:00,
2013-04-07 22:36:00,59.0,54.5,29.77,West,270,0.0,-999.0,85,-99.99,,,0.00,Acu-Link.com,2013-04-08 02:36:00,
2013-04-07 23:07:00,58.1,54.6,29.77,WSW,247,0.0,-999.0,88,-99.99,,,0.00,Acu-Link.com,2013-04-08 03:07:00,
2013-04-07 23:22:00,57.7,53.9,29.78,WSW,247,0.0,-999.0,87,-99.99,,,0.00,Acu-Link.com,2013-04-08 03:22:00,
2013-04-07 23:37:00,57.2,54.0,29.78,WSW,247,0.0,-999.0,89,-99.99,,,0.00,Acu-Link.com,2013-04-08 03:37:00,
2013-04-07 23:52:00,56.5,54.2,29.79,WSW,247,0.0,-999.0,92,-99.99,,,0.00,Acu-Link.com,2013-04-08 03:52:00,